createdAt,value
2022-12-13T00:01:56.933Z,73.60
2022-12-13T00:04:25.012Z,73.52
2022-12-13T00:06:54.213Z,73.20
2022-12-13T00:09:21.835Z,73.60
2022-12-13T00:11:49.817Z,73.42
2022-12-13T00:14:16.905Z,73.81
2022-12-13T00:16:48.926Z,73.36
2022-12-13T00:19:16.965Z,72.70
2022-12-13T00:21:44.289Z,72.81
2022-12-13T00:24:11.569Z,72.92
2022-12-13T00:26:38.551Z,72.95
2022-12-13T00:29:07.549Z,72.72
2022-12-13T00:34:22.712Z,72.62
2022-12-13T00:36:49.943Z,73.00
2022-12-13T00:39:19.283Z,72.68
2022-12-13T00:41:47.285Z,72.55
2022-12-13T00:44:14.815Z,72.85
2022-12-13T00:46:42.118Z,72.45
2022-12-13T00:49:10.568Z,71.74
2022-12-13T00:51:37.728Z,71.80
2022-12-13T00:54:05.347Z,72.17
2022-12-13T00:56:34.069Z,71.93
2022-12-13T00:59:01.136Z,71.89
2022-12-13T01:01:30.577Z,72.19
2022-12-13T01:03:59.640Z,72.35
2022-12-13T01:06:34.478Z,71.87
2022-12-13T01:09:01.600Z,71.95
2022-12-13T01:11:28.918Z,72.01
2022-12-13T01:13:55.802Z,71.87
2022-12-13T01:16:22.815Z,72.50
2022-12-13T01:18:50.492Z,72.96
2022-12-13T01:21:20.599Z,72.71
2022-12-13T01:23:49.491Z,72.99
2022-12-13T01:26:19.597Z,72.46
2022-12-13T01:28:47.365Z,72.70
2022-12-13T01:31:17.495Z,73.05
2022-12-13T01:33:44.572Z,73.03
2022-12-13T01:36:15.301Z,72.42
2022-12-13T01:38:42.851Z,72.03
2022-12-13T01:41:18.774Z,71.87
2022-12-13T01:43:48.388Z,72.04
2022-12-13T01:46:17.821Z,71.53
2022-12-13T01:49:20.308Z,71.87
2022-12-13T01:51:54.474Z,72.01
2022-12-13T01:54:33.457Z,72.56
2022-12-13T01:57:05.615Z,72.43
2022-12-13T01:59:35.392Z,72.86
2022-12-13T02:02:02.559Z,72.93
2022-12-13T02:04:34.980Z,72.72
2022-12-13T02:07:14.420Z,73.22
2022-12-13T02:09:56.670Z,73.09
2022-12-13T02:12:30.578Z,72.90
2022-12-13T02:15:08.076Z,72.79
2022-12-13T02:17:48.291Z,72.54
2022-12-13T02:20:39.900Z,72.38
2022-12-13T02:23:16.896Z,72.36
2022-12-13T02:26:02.386Z,72.28
2022-12-13T02:29:10.323Z,72.30
2022-12-13T02:31:45.570Z,72.50
2022-12-13T02:34:25.898Z,72.37
2022-12-13T02:37:05.376Z,72.03
2022-12-13T02:39:52.973Z,71.97
2022-12-13T02:42:31.437Z,72.10
2022-12-13T02:45:15.796Z,71.72
2022-12-13T02:47:46.835Z,71.66
2022-12-13T02:50:15.063Z,72.24
2022-12-13T02:52:46.635Z,71.98
2022-12-13T02:55:16.899Z,72.15
2022-12-13T02:57:46.099Z,71.95
2022-12-13T03:00:20.969Z,71.74
2022-12-13T03:03:22.053Z,71.46
2022-12-13T03:06:33.514Z,71.22
2022-12-13T03:09:13.618Z,71.19
2022-12-13T03:12:23.434Z,71.34
2022-12-13T03:15:03.750Z,70.53
2022-12-13T03:17:39.693Z,70.46
2022-12-13T03:20:12.601Z,71.01
2022-12-13T03:22:50.169Z,71.48
2022-12-13T03:25:32.254Z,71.56
2022-12-13T03:28:03.189Z,71.40
2022-12-13T03:30:34.173Z,71.29
2022-12-13T03:33:01.704Z,71.22
2022-12-13T03:35:34.935Z,71.56
2022-12-13T03:38:22.593Z,71.41
2022-12-13T03:41:13.123Z,71.24
2022-12-13T03:43:40.658Z,70.85
2022-12-13T03:46:08.269Z,70.68
2022-12-13T03:48:35.548Z,70.34
2022-12-13T03:51:02.937Z,70.50
2022-12-13T03:53:33.699Z,70.93
2022-12-13T03:56:03.660Z,70.76
2022-12-13T03:58:35.917Z,71.04
2022-12-13T04:01:05.285Z,70.99
2022-12-13T04:03:32.272Z,70.90
2022-12-13T04:05:59.215Z,71.05
2022-12-13T04:08:26.180Z,70.82
2022-12-13T04:10:53.325Z,70.34
2022-12-13T04:13:35.259Z,70.67
2022-12-13T04:16:03.407Z,71.13
2022-12-13T04:18:30.775Z,71.39
2022-12-13T04:20:58.264Z,71.44
2022-12-13T04:23:25.243Z,71.59
2022-12-13T04:25:52.505Z,71.35
2022-12-13T04:28:22.698Z,70.82
2022-12-13T04:30:53.172Z,71.30
2022-12-13T04:33:24.864Z,71.32
2022-12-13T04:35:53.513Z,71.45
2022-12-13T04:38:20.722Z,71.50
2022-12-13T04:40:47.675Z,70.88
2022-12-13T04:43:14.618Z,71.03
2022-12-13T04:45:41.755Z,70.98
2022-12-13T04:48:09.075Z,70.87
2022-12-13T04:50:36.342Z,69.32
2022-12-13T04:53:03.270Z,69.28
2022-12-13T04:55:30.147Z,69.25
2022-12-13T04:57:57.016Z,69.03
2022-12-13T05:00:23.953Z,68.70
2022-12-13T05:02:50.902Z,68.58
2022-12-13T05:05:18.569Z,68.75
2022-12-13T05:07:45.956Z,68.87
2022-12-13T05:10:32.188Z,69.15
2022-12-13T05:13:00.344Z,68.98
2022-12-13T05:15:28.973Z,69.26
2022-12-13T05:17:59.613Z,68.79
2022-12-13T05:20:26.929Z,68.26
2022-12-13T05:22:56.523Z,68.33
2022-12-13T05:25:25.101Z,68.43
2022-12-13T05:27:57.040Z,68.40
2022-12-13T05:30:24.124Z,68.20
2022-12-13T05:32:51.150Z,68.88
2022-12-13T05:35:22.953Z,69.39
2022-12-13T05:37:55.139Z,69.95
2022-12-13T05:40:27.560Z,70.36
2022-12-13T05:43:01.622Z,69.70
2022-12-13T05:45:30.902Z,69.67
2022-12-13T05:47:58.834Z,69.06
2022-12-13T05:50:26.034Z,68.70
2022-12-13T05:52:53.309Z,67.62
2022-12-13T05:55:20.598Z,67.97
2022-12-13T05:57:50.514Z,68.05
2022-12-13T06:00:28.685Z,67.70
2022-12-13T06:03:01.282Z,67.08
2022-12-13T06:05:29.845Z,67.25
2022-12-13T06:07:57.969Z,67.15
2022-12-13T06:10:34.680Z,67.10
2022-12-13T06:13:21.029Z,65.80
2022-12-13T06:15:49.702Z,66.04
2022-12-13T06:18:16.638Z,66.39
2022-12-13T06:20:43.688Z,66.19
2022-12-13T06:23:10.920Z,66.03
2022-12-13T06:25:38.011Z,65.22
2022-12-13T06:28:05.092Z,64.67
2022-12-13T06:30:32.357Z,63.74
2022-12-13T06:32:59.314Z,65.01
2022-12-13T06:35:28.858Z,65.42
2022-12-13T06:38:01.724Z,65.47
2022-12-13T06:40:31.100Z,65.81
2022-12-13T06:42:58.089Z,65.97
2022-12-13T06:45:25.723Z,65.90
2022-12-13T06:47:52.648Z,65.90
2022-12-13T06:50:19.857Z,66.17
2022-12-13T06:52:47.520Z,66.10
2022-12-13T06:55:15.013Z,65.38
2022-12-13T06:57:50.827Z,65.87
2022-12-13T07:00:21.876Z,65.43
2022-12-13T07:02:55.091Z,64.67
2022-12-13T07:05:22.528Z,64.95
2022-12-13T07:07:49.606Z,63.03
2022-12-13T07:10:22.646Z,63.84
2022-12-13T07:12:50.633Z,64.60
2022-12-13T07:15:17.788Z,64.62
2022-12-13T07:17:44.804Z,65.46
2022-12-13T07:20:14.208Z,65.31
2022-12-13T07:22:47.895Z,65.45
2022-12-13T07:25:27.615Z,66.49
2022-12-13T07:28:02.462Z,67.81
2022-12-13T07:30:40.919Z,67.95
2022-12-13T07:33:13.728Z,67.85
2022-12-13T07:35:55.355Z,67.47
2022-12-13T07:38:22.604Z,66.76
2022-12-13T07:40:49.602Z,65.80
2022-12-13T07:43:17.007Z,66.16
2022-12-13T07:45:44.213Z,66.56
2022-12-13T07:48:11.148Z,67.18
2022-12-13T07:50:38.203Z,67.02
2022-12-13T07:53:07.773Z,67.00
2022-12-13T07:55:35.429Z,67.34
2022-12-13T07:58:07.539Z,67.60
2022-12-13T08:00:35.956Z,67.00
2022-12-13T08:03:03.366Z,66.64
2022-12-13T08:05:38.943Z,67.18
2022-12-13T08:08:08.726Z,67.51
2022-12-13T08:10:36.000Z,67.56
2022-12-13T08:13:03.538Z,68.05
2022-12-13T08:15:30.807Z,68.10
2022-12-13T08:18:01.031Z,67.77
2022-12-13T08:20:28.060Z,67.49
2022-12-13T08:23:02.308Z,67.34
2022-12-13T08:25:30.912Z,67.47
2022-12-13T08:28:02.363Z,66.61
2022-12-13T08:30:31.536Z,66.91
2022-12-13T08:32:58.769Z,67.34
2022-12-13T08:35:34.343Z,67.54
2022-12-13T08:38:02.269Z,67.46
2022-12-13T08:40:29.351Z,67.61
2022-12-13T08:42:56.630Z,66.98
2022-12-13T08:45:27.214Z,66.88
2022-12-13T08:47:57.250Z,67.15
2022-12-13T08:50:24.372Z,67.93
2022-12-13T08:52:52.350Z,68.12
2022-12-13T08:55:31.414Z,67.83
2022-12-13T08:57:59.098Z,68.07
2022-12-13T09:00:28.341Z,68.50
2022-12-13T09:03:04.214Z,67.13
2022-12-13T09:05:33.869Z,67.36
2022-12-13T09:08:22.956Z,68.24
2022-12-13T09:11:00.053Z,68.64
2022-12-13T09:13:32.712Z,68.13
2022-12-13T09:16:14.184Z,67.58
2022-12-13T09:18:55.253Z,67.64
2022-12-13T09:21:31.313Z,67.88
2022-12-13T09:24:01.532Z,67.77
2022-12-13T09:26:28.972Z,66.16
2022-12-13T09:29:11.163Z,65.74
2022-12-13T09:31:40.480Z,65.82
2022-12-13T09:34:08.629Z,66.57
2022-12-13T09:36:35.668Z,66.49
2022-12-13T09:39:03.166Z,65.79
2022-12-13T09:41:34.367Z,65.83
2022-12-13T09:44:31.151Z,64.99
2022-12-13T09:47:03.253Z,65.43
2022-12-13T09:49:36.034Z,66.25
2022-12-13T09:52:10.806Z,66.67
2022-12-13T09:54:49.102Z,66.82
2022-12-13T09:57:32.705Z,66.62
2022-12-13T10:00:03.269Z,67.19
2022-12-13T10:03:02.381Z,66.65
2022-12-13T10:05:40.120Z,65.59
2022-12-13T10:08:09.322Z,66.54
2022-12-13T10:10:36.340Z,66.88
2022-12-13T10:13:36.814Z,67.33
2022-12-13T10:16:23.369Z,67.14
2022-12-13T10:18:52.692Z,67.06
2022-12-13T10:21:40.187Z,64.78
2022-12-13T10:24:36.212Z,65.96
2022-12-13T10:27:16.256Z,65.45
2022-12-13T10:30:06.225Z,54.39
2022-12-13T10:32:44.258Z,48.77
2022-12-13T10:35:22.302Z,49.96
2022-12-13T10:37:49.561Z,48.77
2022-12-13T10:40:49.112Z,51.04
2022-12-13T10:43:21.171Z,59.50
2022-12-13T10:45:54.248Z,59.60
2022-12-13T10:48:45.475Z,60.68
2022-12-13T10:51:15.523Z,63.84
2022-12-13T10:53:48.399Z,66.86
2022-12-13T10:56:22.808Z,67.88
2022-12-13T10:59:16.862Z,68.23
2022-12-13T11:01:44.821Z,68.30
2022-12-13T11:04:31.741Z,69.25
2022-12-13T11:07:02.029Z,69.59
2022-12-13T11:09:38.650Z,69.46
2022-12-13T11:12:15.738Z,69.32
2022-12-13T11:14:57.280Z,69.43
2022-12-13T11:17:30.954Z,68.47
2022-12-13T11:20:02.666Z,68.98
2022-12-13T11:22:34.538Z,68.06
2022-12-13T11:25:09.988Z,68.27
2022-12-13T11:28:26.848Z,68.92
2022-12-13T11:31:06.502Z,69.15
2022-12-13T11:33:55.258Z,68.68
2022-12-13T11:36:27.927Z,67.78
2022-12-13T11:39:13.295Z,67.62
2022-12-13T11:42:06.152Z,67.33
2022-12-13T11:44:55.234Z,67.20
2022-12-13T11:47:31.481Z,67.61
2022-12-13T11:49:59.737Z,66.96
2022-12-13T11:52:39.940Z,66.13
2022-12-13T11:55:18.365Z,65.84
2022-12-13T11:57:51.240Z,67.87
2022-12-13T12:00:40.339Z,68.31
2022-12-13T12:03:10.356Z,68.17
2022-12-13T12:05:41.125Z,68.11
2022-12-13T12:11:25.052Z,65.87
2022-12-13T12:13:56.707Z,66.28
2022-12-13T12:16:52.578Z,65.90
2022-12-13T12:19:37.270Z,65.64
2022-12-13T12:22:38.337Z,64.33
2022-12-13T12:25:14.305Z,61.65
2022-12-13T12:27:54.199Z,62.74
2022-12-13T12:30:24.595Z,61.46
2022-12-13T12:32:51.576Z,60.41
2022-12-13T12:35:45.962Z,60.29
2022-12-13T12:38:31.731Z,60.50
2022-12-13T12:41:23.389Z,60.52
2022-12-13T12:44:14.561Z,55.20
2022-12-13T12:47:18.921Z,55.92
2022-12-13T12:49:46.711Z,57.10
2022-12-13T12:52:28.741Z,56.15
2022-12-13T12:55:16.262Z,53.98
2022-12-13T12:58:01.852Z,56.03
2022-12-13T13:00:35.426Z,55.75
2022-12-13T13:03:28.917Z,55.38
2022-12-13T13:06:02.663Z,55.43
2022-12-13T13:08:43.372Z,55.97
2022-12-13T13:11:23.928Z,56.98
2022-12-13T13:14:01.777Z,57.52
2022-12-13T13:16:42.043Z,54.49
2022-12-13T13:19:12.012Z,49.49
2022-12-13T13:21:47.504Z,53.66
2022-12-13T13:24:20.481Z,55.09
2022-12-13T13:26:50.101Z,54.49
2022-12-13T13:29:28.833Z,54.98
2022-12-13T13:32:06.520Z,55.87
2022-12-13T13:34:38.234Z,53.72
2022-12-13T13:37:27.453Z,52.01
2022-12-13T13:40:01.720Z,51.35
2022-12-13T13:42:29.343Z,51.36
2022-12-13T13:45:01.331Z,55.57
2022-12-13T13:47:35.613Z,55.92
2022-12-13T13:50:05.260Z,56.18
2022-12-13T13:52:44.234Z,56.67
2022-12-13T13:55:29.722Z,58.00
2022-12-13T13:58:10.259Z,56.85
2022-12-13T14:01:08.839Z,56.64
2022-12-13T14:03:36.291Z,57.10
2022-12-13T14:06:24.663Z,57.74
2022-12-13T14:09:29.034Z,57.66
2022-12-13T14:12:17.032Z,57.38
2022-12-13T14:15:02.585Z,57.73
2022-12-13T14:17:46.517Z,58.25
2022-12-13T14:20:22.808Z,58.72
2022-12-13T14:23:22.272Z,59.83
2022-12-13T14:26:04.272Z,60.23
2022-12-13T14:28:49.329Z,60.83
2022-12-13T14:31:30.329Z,61.21
2022-12-13T14:33:59.623Z,61.36
2022-12-13T14:36:32.243Z,61.40
2022-12-13T14:39:01.808Z,61.73
2022-12-13T14:41:28.753Z,61.42
2022-12-13T14:43:55.788Z,61.34
2022-12-13T14:46:22.766Z,61.52
2022-12-13T14:48:53.925Z,61.79
2022-12-13T14:51:37.307Z,61.72
2022-12-13T14:54:07.138Z,61.82
2022-12-13T14:56:34.694Z,61.93
2022-12-13T14:59:12.021Z,62.03
2022-12-13T15:01:39.567Z,62.07
2022-12-13T15:04:25.778Z,62.16
2022-12-13T15:07:07.065Z,60.85
2022-12-13T15:09:42.565Z,61.42
2022-12-13T15:12:24.633Z,61.32
2022-12-13T15:15:05.874Z,61.16
2022-12-13T15:17:35.840Z,61.68
2022-12-13T15:20:23.860Z,61.99
2022-12-13T15:23:02.176Z,62.42
2022-12-13T15:25:35.134Z,62.32
2022-12-13T15:28:02.358Z,61.96
2022-12-13T15:30:33.054Z,60.52
2022-12-13T15:33:34.499Z,60.13
2022-12-13T15:36:21.142Z,59.70
2022-12-13T15:39:01.755Z,60.33
2022-12-13T15:41:41.830Z,59.45
2022-12-13T15:44:28.507Z,60.63
2022-12-13T15:47:28.475Z,61.28
2022-12-13T15:49:56.055Z,62.42
2022-12-13T15:52:40.734Z,62.52
2022-12-13T15:55:07.915Z,62.13
2022-12-13T15:57:56.201Z,62.30
2022-12-13T16:00:34.495Z,62.81
2022-12-13T16:03:21.955Z,62.54
2022-12-13T16:05:54.989Z,62.70
2022-12-13T16:08:26.092Z,63.13
2022-12-13T16:10:54.159Z,64.73
2022-12-13T16:13:39.995Z,64.93
2022-12-13T16:16:28.881Z,65.20
2022-12-13T16:19:00.297Z,64.84
2022-12-13T16:21:28.738Z,65.46
2022-12-13T16:23:55.637Z,65.28
2022-12-13T16:26:26.365Z,64.82
2022-12-13T16:28:55.426Z,65.34
2022-12-13T16:31:25.735Z,65.14
2022-12-13T16:33:53.234Z,65.86
2022-12-13T16:36:20.544Z,65.98
2022-12-13T16:38:47.498Z,65.87
2022-12-13T16:41:15.749Z,66.86
2022-12-13T16:43:51.185Z,66.98
2022-12-13T16:47:15.287Z,67.48
2022-12-13T16:49:17.805Z,67.41
2022-12-13T16:51:48.284Z,67.38
2022-12-13T16:54:17.819Z,67.49
2022-12-13T16:56:44.772Z,67.49
2022-12-13T16:59:20.710Z,67.23
2022-12-13T17:01:48.841Z,68.18
2022-12-13T17:04:20.951Z,68.48
2022-12-13T17:06:59.500Z,71.09
2022-12-13T17:09:26.796Z,69.83
2022-12-13T17:11:54.200Z,69.57
2022-12-13T17:14:21.242Z,70.06
2022-12-13T17:16:48.168Z,69.43
2022-12-13T17:19:15.860Z,68.90
2022-12-13T17:21:43.181Z,68.98
2022-12-13T17:24:10.200Z,68.40
2022-12-13T17:26:37.232Z,68.90
2022-12-13T17:29:05.201Z,68.34
2022-12-13T17:31:35.979Z,68.46
2022-12-13T17:34:04.233Z,68.60
2022-12-13T17:36:34.003Z,69.25
2022-12-13T17:39:01.040Z,69.17
2022-12-13T17:41:27.972Z,69.53
2022-12-13T17:43:59.493Z,69.34
2022-12-13T17:46:26.552Z,68.47
2022-12-13T17:48:53.598Z,68.61
2022-12-13T17:51:24.512Z,67.68
2022-12-13T17:53:51.661Z,67.10
2022-12-13T17:56:19.857Z,66.49
2022-12-13T17:58:46.836Z,66.25
2022-12-13T18:01:18.563Z,66.40
2022-12-13T18:03:45.568Z,66.93
2022-12-13T18:06:12.649Z,66.82
2022-12-13T18:08:40.703Z,66.88
2022-12-13T18:11:31.971Z,66.08
2022-12-13T18:13:56.298Z,66.33
2022-12-13T18:16:32.092Z,66.55
2022-12-13T18:19:06.221Z,66.99
2022-12-13T18:21:33.932Z,67.29
2022-12-13T18:24:01.183Z,67.56
2022-12-13T18:26:32.187Z,67.06
2022-12-13T18:28:59.152Z,66.96
2022-12-13T18:31:26.313Z,66.77
2022-12-13T18:33:54.202Z,66.99
2022-12-13T18:36:23.317Z,66.80
2022-12-13T18:38:50.672Z,66.89
2022-12-13T18:41:21.150Z,67.34
2022-12-13T18:43:48.467Z,67.29
2022-12-13T18:46:16.252Z,67.26
2022-12-13T18:48:43.776Z,67.50
2022-12-13T18:51:11.195Z,67.18
2022-12-13T18:53:40.339Z,67.40
2022-12-13T18:56:16.062Z,66.80
2022-12-13T18:58:46.735Z,66.54
2022-12-13T19:01:15.928Z,66.48
2022-12-13T19:03:45.104Z,66.09
2022-12-13T19:06:33.713Z,66.25
2022-12-13T19:09:00.694Z,66.57
2022-12-13T19:11:28.429Z,66.61
2022-12-13T19:13:55.800Z,66.53
2022-12-13T19:16:24.779Z,66.94
2022-12-13T19:18:51.922Z,66.50
2022-12-13T19:21:21.703Z,66.58
2022-12-13T19:23:56.493Z,66.54
2022-12-13T19:26:25.401Z,66.44
2022-12-13T19:28:52.359Z,65.58
2022-12-13T19:31:19.357Z,66.12
2022-12-13T19:33:46.824Z,66.15
2022-12-13T19:36:13.937Z,66.26
2022-12-13T19:38:42.061Z,66.31
2022-12-13T19:41:11.602Z,65.25
2022-12-13T19:43:38.639Z,64.95
2022-12-13T19:46:07.002Z,65.94
2022-12-13T19:48:34.520Z,66.35
2022-12-13T19:51:03.445Z,66.52
2022-12-13T19:53:30.554Z,66.40
2022-12-13T19:55:58.543Z,65.99
2022-12-13T19:58:26.853Z,65.57
2022-12-13T20:01:00.559Z,65.81
2022-12-13T20:03:28.275Z,64.98
2022-12-13T20:06:00.084Z,65.58
2022-12-13T20:08:27.135Z,65.54
2022-12-13T20:11:06.421Z,65.03
2022-12-13T20:13:34.595Z,65.45
2022-12-13T20:16:02.371Z,65.88
2022-12-13T20:18:29.283Z,65.69
2022-12-13T20:21:12.443Z,65.60
2022-12-13T20:23:39.861Z,65.34
2022-12-13T20:26:09.514Z,65.70
2022-12-13T20:28:36.678Z,65.43
2022-12-13T20:31:09.422Z,65.81
2022-12-13T20:33:36.543Z,65.57
2022-12-13T20:36:24.117Z,65.54
2022-12-13T20:38:53.612Z,65.74
2022-12-13T20:41:20.624Z,66.06
2022-12-13T20:43:51.672Z,65.84
2022-12-13T20:46:19.290Z,65.39
2022-12-13T20:48:48.156Z,65.47
2022-12-13T20:51:18.240Z,65.11
2022-12-13T20:53:52.703Z,65.24
2022-12-13T20:56:22.599Z,65.88
2022-12-13T20:58:50.627Z,65.82
2022-12-13T21:01:30.633Z,65.92
2022-12-13T21:04:02.971Z,64.93
2022-12-13T21:06:31.207Z,64.72
2022-12-13T21:09:05.381Z,65.23
2022-12-13T21:11:49.035Z,64.90
2022-12-13T21:14:25.606Z,64.67
2022-12-13T21:16:58.096Z,63.76
2022-12-13T21:19:27.383Z,63.96
2022-12-13T21:21:55.969Z,62.68
2022-12-13T21:24:25.166Z,62.83
2022-12-13T21:26:53.248Z,63.11
2022-12-13T21:29:20.413Z,63.97
2022-12-13T21:31:53.432Z,64.05
2022-12-13T21:34:21.684Z,63.55
2022-12-13T21:36:52.478Z,63.50
2022-12-13T21:39:29.763Z,63.98
2022-12-13T21:41:57.411Z,63.60
2022-12-13T21:44:24.655Z,63.14
2022-12-13T21:49:39.094Z,62.74
2022-12-13T21:52:06.224Z,63.00
2022-12-13T21:54:33.269Z,61.81
2022-12-13T21:57:18.703Z,62.37
2022-12-13T21:59:46.099Z,62.46
2022-12-13T22:02:16.589Z,62.81
2022-12-13T22:04:55.609Z,63.07
2022-12-13T22:07:25.959Z,62.52
2022-12-13T22:09:53.808Z,63.07
2022-12-13T22:12:41.334Z,62.95
2022-12-13T22:15:13.977Z,62.51
2022-12-13T22:17:42.928Z,62.28
2022-12-13T22:20:13.025Z,63.23
2022-12-13T22:22:41.895Z,63.81
2022-12-13T22:25:33.907Z,63.80
2022-12-13T22:28:00.815Z,64.55
2022-12-13T22:30:27.804Z,64.12
2022-12-13T22:32:54.737Z,63.80
2022-12-13T22:35:21.663Z,63.44
2022-12-13T22:37:48.963Z,63.22
2022-12-13T22:40:16.125Z,63.35
2022-12-13T22:42:43.033Z,63.68
2022-12-13T22:45:15.452Z,63.38
2022-12-13T22:47:42.367Z,64.25
2022-12-13T22:50:10.302Z,63.72
2022-12-13T22:52:37.363Z,63.27
2022-12-13T22:55:04.581Z,63.06
2022-12-13T22:57:31.529Z,62.71
2022-12-13T22:59:58.489Z,63.19
2022-12-13T23:02:29.171Z,63.40
2022-12-13T23:04:56.139Z,62.98
2022-12-13T23:07:23.068Z,62.84
2022-12-13T23:09:50.080Z,62.79
2022-12-13T23:12:35.802Z,62.50
2022-12-13T23:15:02.791Z,62.12
2022-12-13T23:17:30.195Z,62.48
2022-12-13T23:19:57.132Z,62.37
2022-12-13T23:22:25.916Z,62.23
2022-12-13T23:24:53.528Z,63.23
2022-12-13T23:27:22.559Z,64.27
2022-12-13T23:29:49.902Z,63.12
2022-12-13T23:32:17.028Z,62.67
2022-12-13T23:34:43.936Z,62.42
2022-12-13T23:37:10.950Z,63.37
2022-12-13T23:39:37.871Z,63.82
2022-12-13T23:42:05.009Z,63.80
2022-12-13T23:44:32.043Z,63.29
2022-12-13T23:47:01.255Z,63.31
2022-12-13T23:49:28.231Z,62.66
2022-12-13T23:51:55.143Z,62.90
2022-12-13T23:54:22.113Z,63.15
2022-12-13T23:56:48.997Z,63.46
2022-12-13T23:59:19.378Z,63.69
